Time,TemperatureF,DewpointF,PressureIn,WindDirection,WindDirectionDegrees,WindSpeedMPH,WindSpeedGustMPH,Humidity,HourlyPrecipIn,Conditions,Clouds,dailyrainin,SoftwareType,DateUTC
2013-07-16 00:11:00,66.5,64.0,30.36,NNE,27,0.0,0.0,91,0.00,,,0.00,weatherlink.com 1.10,2013-07-16 04:11:00,
2013-07-16 00:26:00,66.5,64.0,30.36,NNE,27,0.0,1.0,91,0.00,,,0.00,weatherlink.com 1.10,2013-07-16 04:26:00,
2013-07-16 00:41:00,66.4,64.0,30.36,NNE,27,0.0,0.0,91,0.00,,,0.00,weatherlink.com 1.10,2013-07-16 04:41:00,
2013-07-16 00:56:00,66.1,64.0,30.36,NNE,27,0.0,0.0,92,0.00,,,0.00,weatherlink.com 1.10,2013-07-16 04:56:00,
2013-07-16 01:11:00,66.0,64.0,30.36,NNE,27,0.0,0.0,92,0.00,,,0.00,weatherlink.com 1.10,2013-07-16 05:11:00,
2013-07-16 01:26:00,66.1,64.0,30.36,NNE,27,0.0,0.0,92,0.00,,,0.00,weatherlink.com 1.10,2013-07-16 05:26:00,
2013-07-16 01:41:00,66.0,64.0,30.35,NNE,27,0.0,0.0,93,0.00,,,0.00,weatherlink.com 1.10,2013-07-16 05:41:00,
2013-07-16 01:56:00,66.0,64.0,30.35,NNE,27,0.0,0.0,93,0.00,,,0.00,weatherlink.com 1.10,2013-07-16 05:56:00,
2013-07-16 02:11:00,65.8,64.0,30.35,NNE,27,0.0,2.0,93,0.00,,,0.00,weatherlink.com 1.10,2013-07-16 06:11:00,
2013-07-16 02:26:00,65.9,64.0,30.35,NNE,27,0.0,0.0,93,0.00,,,0.00,weatherlink.com 1.10,2013-07-16 06:26:00,
2013-07-16 02:41:00,65.8,64.0,30.35,NNE,27,0.0,2.0,93,0.00,,,0.00,weatherlink.com 1.10,2013-07-16 06:41:00,
2013-07-16 02:56:00,65.9,64.0,30.35,NNE,27,0.0,0.0,94,0.00,,,0.00,weatherlink.com 1.10,2013-07-16 06:56:00,
2013-07-16 03:11:00,65.8,64.0,30.34,NNE,27,0.0,0.0,94,0.00,,,0.00,weatherlink.com 1.10,2013-07-16 07:11:00,
2013-07-16 03:26:00,65.6,64.0,30.34,NNE,27,0.0,1.0,94,0.00,,,0.00,weatherlink.com 1.10,2013-07-16 07:26:00,
2013-07-16 03:41:00,65.7,64.0,30.34,NNE,27,0.0,0.0,94,0.00,,,0.00,weatherlink.com 1.10,2013-07-16 07:41:00,
2013-07-16 03:56:00,65.8,64.0,30.34,NNE,27,0.0,0.0,94,0.00,,,0.00,weatherlink.com 1.10,2013-07-16 07:56:00,
2013-07-16 04:11:00,65.6,64.0,30.34,NNE,27,0.0,0.0,94,0.00,,,0.00,weatherlink.com 1.10,2013-07-16 08:11:00,
2013-07-16 04:26:00,65.3,64.0,30.33,NNE,27,1.0,2.0,94,0.00,,,0.00,weatherlink.com 1.10,2013-07-16 08:26:00,
2013-07-16 04:41:00,65.0,64.0,30.34,NNE,27,1.0,2.0,95,0.00,,,0.00,weatherlink.com 1.10,2013-07-16 08:41:00,
2013-07-16 04:56:00,64.8,63.0,30.33,NNE,27,2.0,2.0,95,0.00,,,0.00,weatherlink.com 1.10,2013-07-16 08:56:00,
2013-07-16 05:11:00,64.6,63.0,30.34,NNE,27,0.0,2.0,95,0.00,,,0.00,weatherlink.com 1.10,2013-07-16 09:11:00,
2013-07-16 05:26:00,64.8,63.0,30.34,NNE,27,0.0,0.0,95,0.00,,,0.00,weatherlink.com 1.10,2013-07-16 09:26:00,
2013-07-16 05:41:00,64.7,63.0,30.34,NNE,27,0.0,0.0,95,0.00,,,0.00,weatherlink.com 1.10,2013-07-16 09:41:00,
2013-07-16 05:56:00,64.3,63.0,30.34,NNE,27,2.0,2.0,95,0.00,,,0.00,weatherlink.com 1.10,2013-07-16 09:56:00,
2013-07-16 06:11:00,63.9,63.0,30.34,NNE,27,0.0,2.0,96,0.00,,,0.00,weatherlink.com 1.10,2013-07-16 10:11:00,
2013-07-16 06:26:00,63.8,63.0,30.34,NNE,27,1.0,2.0,96,0.00,,,0.00,weatherlink.com 1.10,2013-07-16 10:26:00,
2013-07-16 06:41:00,63.8,63.0,30.34,NNE,27,1.0,2.0,96,0.00,,,0.00,weatherlink.com 1.10,2013-07-16 10:41:00,
2013-07-16 06:56:00,63.8,63.0,30.34,NNE,27,1.0,2.0,96,0.00,,,0.00,weatherlink.com 1.10,2013-07-16 10:56:00,
2013-07-16 07:11:00,63.8,63.0,30.34,NNE,27,0.0,2.0,96,0.00,,,0.00,weatherlink.com 1.10,2013-07-16 11:11:00,
2013-07-16 07:26:00,63.9,63.0,30.35,NNE,27,1.0,2.0,96,0.00,,,0.00,weatherlink.com 1.10,2013-07-16 11:26:00,
2013-07-16 07:41:00,64.1,63.0,30.35,NNE,27,1.0,1.0,96,0.00,,,0.00,weatherlink.com 1.10,2013-07-16 11:41:00,
2013-07-16 07:56:00,64.2,63.0,30.36,NNE,27,0.0,1.0,96,0.00,,,0.00,weatherlink.com 1.10,2013-07-16 11:56:00,
2013-07-16 08:11:00,64.4,64.0,30.36,NNE,27,0.0,1.0,97,0.00,,,0.00,weatherlink.com 1.10,2013-07-16 12:11:00,
2013-07-16 08:26:00,64.6,64.0,30.36,NNE,27,1.0,2.0,97,0.00,,,0.00,weatherlink.com 1.10,2013-07-16 12:26:00,
2013-07-16 08:41:00,65.0,64.0,30.36,NNE,27,0.0,2.0,96,0.00,,,0.00,weatherlink.com 1.10,2013-07-16 12:41:00,
2013-07-16 08:56:00,65.5,64.0,30.37,NNE,27,0.0,2.0,96,0.00,,,0.00,weatherlink.com 1.10,2013-07-16 12:56:00,
2013-07-16 09:11:00,66.2,65.0,30.37,NNE,27,0.0,1.0,96,0.00,,,0.00,weatherlink.com 1.10,2013-07-16 13:11:00,
2013-07-16 09:26:00,67.5,66.0,30.38,NNE,27,0.0,0.0,94,0.00,,,0.00,weatherlink.com 1.10,2013-07-16 13:26:00,
2013-07-16 09:42:00,69.3,67.0,30.38,NNE,27,1.0,2.0,91,0.00,,,0.00,weatherlink.com 1.10,2013-07-16 13:42:00,
2013-07-16 09:57:00,69.3,67.0,30.38,WSW,247,0.0,3.0,91,0.00,,,0.00,weatherlink.com 1.10,2013-07-16 13:57:00,
2013-07-16 10:12:00,69.7,67.0,30.38,WSW,247,0.0,2.0,91,0.00,,,0.00,weatherlink.com 1.10,2013-07-16 14:12:00,
2013-07-16 10:27:00,72.0,68.0,30.38,ENE,70,1.0,2.0,86,0.00,,,0.00,weatherlink.com 1.10,2013-07-16 14:27:00,
2013-07-16 10:42:00,72.7,68.0,30.38,ESE,110,0.0,2.0,84,0.00,,,0.00,weatherlink.com 1.10,2013-07-16 14:42:00,
2013-07-16 10:58:00,72.1,67.0,30.38,SW,231,0.0,3.0,84,0.00,,,0.00,weatherlink.com 1.10,2013-07-16 14:58:00,
2013-07-16 11:12:00,72.2,68.0,30.38,SW,233,0.0,1.0,86,0.00,,,0.00,weatherlink.com 1.10,2013-07-16 15:12:00,
2013-07-16 11:27:00,72.4,67.0,30.37,SW,233,0.0,2.0,84,0.00,,,0.00,weatherlink.com 1.10,2013-07-16 15:27:00,
2013-07-16 11:42:00,72.1,67.0,30.37,North,350,0.0,2.0,83,0.00,,,0.00,weatherlink.com 1.10,2013-07-16 15:42:00,
2013-07-16 11:57:00,72.9,66.0,30.37,NNE,23,0.0,2.0,79,0.00,,,0.00,weatherlink.com 1.10,2013-07-16 15:57:00,
2013-07-16 12:12:00,73.3,67.0,30.37,WNW,291,0.0,4.0,80,0.00,,,0.00,weatherlink.com 1.10,2013-07-16 16:12:00,
2013-07-16 12:27:00,73.0,66.0,30.37,SW,231,0.0,1.0,79,0.00,,,0.00,weatherlink.com 1.10,2013-07-16 16:27:00,
2013-07-16 12:42:00,74.4,68.0,30.37,SSW,199,1.0,5.0,80,0.00,,,0.00,weatherlink.com 1.10,2013-07-16 16:42:00,
2013-07-16 12:57:00,74.9,66.0,30.36,SW,218,0.0,3.0,74,0.00,,,0.00,weatherlink.com 1.10,2013-07-16 16:57:00,
2013-07-16 13:12:00,74.7,65.0,30.36,WNW,288,6.0,9.0,71,0.00,,,0.00,weatherlink.com 1.10,2013-07-16 17:12:00,
2013-07-16 13:27:00,74.7,66.0,30.36,ESE,119,1.0,4.0,75,0.00,,,0.00,weatherlink.com 1.10,2013-07-16 17:27:00,
2013-07-16 13:42:00,75.2,67.0,30.35,SSW,193,1.0,4.0,76,0.00,,,0.00,weatherlink.com 1.10,2013-07-16 17:42:00,
2013-07-16 13:57:00,76.8,68.0,30.35,WSW,249,2.0,3.0,73,0.00,,,0.00,weatherlink.com 1.10,2013-07-16 17:57:00,
2013-07-16 14:12:00,76.7,66.0,30.34,SW,226,2.0,6.0,70,0.00,,,0.00,weatherlink.com 1.10,2013-07-16 18:12:00,
2013-07-16 14:27:00,77.0,64.0,30.34,SSW,203,1.0,8.0,65,0.00,,,0.00,weatherlink.com 1.10,2013-07-16 18:27:00,
2013-07-16 14:42:00,77.1,64.0,30.34,West,271,1.0,5.0,65,0.00,,,0.00,weatherlink.com 1.10,2013-07-16 18:42:00,
2013-07-16 14:57:00,77.4,65.0,30.33,SSW,208,4.0,5.0,65,0.00,,,0.00,weatherlink.com 1.10,2013-07-16 18:57:00,
2013-07-16 15:12:00,77.6,64.0,30.33,WSW,237,2.0,6.0,64,0.00,,,0.00,weatherlink.com 1.10,2013-07-16 19:12:00,
2013-07-16 15:27:00,78.2,65.0,30.33,South,170,0.0,3.0,65,0.00,,,0.00,weatherlink.com 1.10,2013-07-16 19:27:00,
2013-07-16 15:42:00,78.5,66.0,30.32,WNW,299,3.0,3.0,65,0.00,,,0.00,weatherlink.com 1.10,2013-07-16 19:42:00,
2013-07-16 15:58:00,78.2,63.0,30.32,NNE,17,1.0,7.0,60,0.00,,,0.00,weatherlink.com 1.10,2013-07-16 19:58:00,
2013-07-16 16:13:00,78.9,65.0,30.32,SW,217,1.0,3.0,63,0.00,,,0.00,weatherlink.com 1.10,2013-07-16 20:13:00,
2013-07-16 16:28:00,78.5,66.0,30.32,WNW,302,0.0,7.0,65,0.00,,,0.00,weatherlink.com 1.10,2013-07-16 20:28:00,
2013-07-16 16:43:00,79.4,65.0,30.32,NE,37,2.0,3.0,61,0.00,,,0.00,weatherlink.com 1.10,2013-07-16 20:43:00,
2013-07-16 16:58:00,78.7,65.0,30.32,SSW,213,0.0,4.0,62,0.00,,,0.00,weatherlink.com 1.10,2013-07-16 20:58:00,
2013-07-16 17:13:00,76.5,68.0,30.32,NE,51,1.0,2.0,75,0.00,,,0.00,weatherlink.com 1.10,2013-07-16 21:13:00,
2013-07-16 17:28:00,74.3,66.0,30.31,NE,51,2.0,3.0,76,0.00,,,0.00,weatherlink.com 1.10,2013-07-16 21:28:00,
2013-07-16 17:43:00,72.9,66.0,30.32,NE,51,2.0,3.0,80,0.00,,,0.00,weatherlink.com 1.10,2013-07-16 21:43:00,
2013-07-16 17:58:00,72.4,67.0,30.32,NE,51,1.0,2.0,83,0.00,,,0.00,weatherlink.com 1.10,2013-07-16 21:58:00,
2013-07-16 18:13:00,72.2,67.0,30.32,NE,51,0.0,1.0,83,0.00,,,0.00,weatherlink.com 1.10,2013-07-16 22:13:00,
2013-07-16 18:28:00,72.1,67.0,30.32,NE,51,0.0,0.0,85,0.00,,,0.00,weatherlink.com 1.10,2013-07-16 22:28:00,
2013-07-16 18:43:00,71.9,68.0,30.32,NE,51,0.0,1.0,86,0.00,,,0.00,weatherlink.com 1.10,2013-07-16 22:43:00,
2013-07-16 18:58:00,71.7,68.0,30.32,NE,51,0.0,1.0,87,0.00,,,0.00,weatherlink.com 1.10,2013-07-16 22:58:00,
2013-07-16 19:13:00,71.7,67.0,30.32,NE,51,0.0,0.0,86,0.00,,,0.00,weatherlink.com 1.10,2013-07-16 23:13:00,
2013-07-16 19:28:00,71.7,67.0,30.33,NE,51,0.0,1.0,86,0.00,,,0.00,weatherlink.com 1.10,2013-07-16 23:28:00,
2013-07-16 19:43:00,71.6,67.0,30.33,NE,51,1.0,2.0,86,0.00,,,0.00,weatherlink.com 1.10,2013-07-16 23:43:00,
2013-07-16 19:58:00,70.6,67.0,30.34,NE,51,2.0,2.0,88,0.00,,,0.00,weatherlink.com 1.10,2013-07-16 23:58:00,
2013-07-16 20:13:00,70.4,67.0,30.33,NE,51,1.0,2.0,89,0.00,,,0.00,weatherlink.com 1.10,2013-07-17 00:13:00,
2013-07-16 20:28:00,70.3,67.0,30.34,NE,51,0.0,2.0,88,0.00,,,0.00,weatherlink.com 1.10,2013-07-17 00:28:00,
2013-07-16 20:43:00,70.1,67.0,30.34,NE,51,0.0,2.0,88,0.00,,,0.00,weatherlink.com 1.10,2013-07-17 00:43:00,
2013-07-16 20:58:00,69.8,67.0,30.33,NE,51,0.0,2.0,89,0.00,,,0.00,weatherlink.com 1.10,2013-07-17 00:58:00,
2013-07-16 21:13:00,69.7,66.0,30.33,NE,51,0.0,0.0,89,0.00,,,0.00,weatherlink.com 1.10,2013-07-17 01:13:00,
2013-07-16 21:28:00,69.5,66.0,30.34,NE,51,0.0,3.0,89,0.00,,,0.00,weatherlink.com 1.10,2013-07-17 01:28:00,
2013-07-16 21:43:00,69.4,66.0,30.34,NE,51,0.0,2.0,90,0.00,,,0.00,weatherlink.com 1.10,2013-07-17 01:43:00,
2013-07-16 21:58:00,69.0,66.0,30.34,NE,51,1.0,2.0,91,0.00,,,0.00,weatherlink.com 1.10,2013-07-17 01:58:00,
2013-07-16 22:13:00,68.7,66.0,30.35,NE,51,0.0,1.0,91,0.00,,,0.00,weatherlink.com 1.10,2013-07-17 02:13:00,
2013-07-16 22:28:00,68.4,65.0,30.35,NE,51,0.0,1.0,90,0.00,,,0.00,weatherlink.com 1.10,2013-07-17 02:28:00,
2013-07-16 22:43:00,68.4,65.0,30.35,NE,51,0.0,1.0,90,0.00,,,0.00,weatherlink.com 1.10,2013-07-17 02:43:00,
2013-07-16 22:58:00,68.2,66.0,30.35,NE,51,0.0,0.0,91,0.00,,,0.00,weatherlink.com 1.10,2013-07-17 02:58:00,
2013-07-16 23:13:00,68.1,65.0,30.35,NE,51,1.0,2.0,91,0.00,,,0.00,weatherlink.com 1.10,2013-07-17 03:13:00,
2013-07-16 23:28:00,68.1,65.0,30.35,NE,51,1.0,2.0,91,0.00,,,0.00,weatherlink.com 1.10,2013-07-17 03:28:00,
2013-07-16 23:43:00,68.4,65.0,30.34,NE,51,1.0,3.0,89,0.00,,,0.00,weatherlink.com 1.10,2013-07-17 03:43:00,
2013-07-16 23:58:00,68.7,65.0,30.34,NE,51,2.0,3.0,88,0.00,,,0.00,weatherlink.com 1.10,2013-07-17 03:58:00,